sensor_id;sensor_type;location;lat;lon;timestamp;P1;durP1;ratioP1;P2;durP2;ratioP2
56255;SDS011;57229;51.432;-2.598;2024-03-08T00:00:18;58.00;;;28.67;;
56255;SDS011;57229;51.432;-2.598;2024-03-08T00:02:44;56.47;;;28.27;;
56255;SDS011;57229;51.432;-2.598;2024-03-08T00:05:13;59.42;;;29.48;;
56255;SDS011;57229;51.432;-2.598;2024-03-08T00:08:19;58.95;;;29.58;;
56255;SDS011;57229;51.432;-2.598;2024-03-08T00:11:14;59.75;;;29.50;;
56255;SDS011;57229;51.432;-2.598;2024-03-08T00:14:02;54.35;;;27.65;;
56255;SDS011;57229;51.432;-2.598;2024-03-08T00:16:35;59.58;;;29.15;;
56255;SDS011;57229;51.432;-2.598;2024-03-08T00:19:05;63.63;;;28.92;;
56255;SDS011;57229;51.432;-2.598;2024-03-08T00:21:33;62.50;;;31.02;;
56255;SDS011;57229;51.432;-2.598;2024-03-08T00:24:07;63.97;;;29.17;;
56255;SDS011;57229;51.432;-2.598;2024-03-08T00:26:34;61.85;;;30.13;;
56255;SDS011;57229;51.432;-2.598;2024-03-08T00:29:12;63.53;;;31.23;;
56255;SDS011;57229;51.432;-2.598;2024-03-08T00:32:02;59.92;;;29.65;;
56255;SDS011;57229;51.432;-2.598;2024-03-08T00:34:31;59.08;;;30.00;;
56255;SDS011;57229;51.432;-2.598;2024-03-08T00:37:00;63.00;;;29.58;;
56255;SDS011;57229;51.432;-2.598;2024-03-08T00:39:32;60.60;;;29.98;;
56255;SDS011;57229;51.432;-2.598;2024-03-08T00:42:04;64.50;;;30.23;;
56255;SDS011;57229;51.432;-2.598;2024-03-08T00:45:03;58.00;;;30.13;;
56255;SDS011;57229;51.432;-2.598;2024-03-08T00:47:33;58.13;;;29.88;;
56255;SDS011;57229;51.432;-2.598;2024-03-08T00:50:04;61.70;;;30.33;;
56255;SDS011;57229;51.432;-2.598;2024-03-08T00:52:51;63.65;;;30.70;;
56255;SDS011;57229;51.432;-2.598;2024-03-08T00:55:18;58.63;;;30.98;;
56255;SDS011;57229;51.432;-2.598;2024-03-08T00:57:44;67.45;;;31.45;;
56255;SDS011;57229;51.432;-2.598;2024-03-08T01:00:10;64.88;;;31.90;;
56255;SDS011;57229;51.432;-2.598;2024-03-08T01:02:37;63.42;;;32.38;;
56255;SDS011;57229;51.432;-2.598;2024-03-08T01:05:07;67.20;;;32.88;;
56255;SDS011;57229;51.432;-2.598;2024-03-08T01:07:34;67.65;;;33.05;;
56255;SDS011;57229;51.432;-2.598;2024-03-08T01:10:03;73.40;;;33.75;;
56255;SDS011;57229;51.432;-2.598;2024-03-08T01:12:35;68.57;;;32.63;;
56255;SDS011;57229;51.432;-2.598;2024-03-08T01:15:00;67.60;;;31.88;;
56255;SDS011;57229;51.432;-2.598;2024-03-08T01:17:27;71.00;;;32.55;;
56255;SDS011;57229;51.432;-2.598;2024-03-08T01:19:53;66.90;;;33.08;;
56255;SDS011;57229;51.432;-2.598;2024-03-08T01:22:38;71.10;;;33.97;;
56255;SDS011;57229;51.432;-2.598;2024-03-08T01:25:05;64.15;;;31.60;;
56255;SDS011;57229;51.432;-2.598;2024-03-08T01:27:31;73.68;;;33.65;;
56255;SDS011;57229;51.432;-2.598;2024-03-08T01:29:57;76.18;;;35.15;;
56255;SDS011;57229;51.432;-2.598;2024-03-08T01:32:24;69.07;;;32.45;;
56255;SDS011;57229;51.432;-2.598;2024-03-08T01:34:50;66.45;;;32.38;;
56255;SDS011;57229;51.432;-2.598;2024-03-08T01:37:15;76.63;;;34.65;;
56255;SDS011;57229;51.432;-2.598;2024-03-08T01:39:41;76.70;;;35.63;;
56255;SDS011;57229;51.432;-2.598;2024-03-08T01:42:07;74.93;;;34.13;;
56255;SDS011;57229;51.432;-2.598;2024-03-08T01:44:33;75.15;;;34.78;;
56255;SDS011;57229;51.432;-2.598;2024-03-08T01:47:01;81.47;;;34.53;;
56255;SDS011;57229;51.432;-2.598;2024-03-08T01:49:34;76.00;;;34.78;;
56255;SDS011;57229;51.432;-2.598;2024-03-08T01:52:06;76.72;;;34.50;;
56255;SDS011;57229;51.432;-2.598;2024-03-08T01:54:33;75.47;;;35.00;;
56255;SDS011;57229;51.432;-2.598;2024-03-08T01:57:02;76.68;;;35.35;;
56255;SDS011;57229;51.432;-2.598;2024-03-08T01:59:30;77.90;;;34.97;;
56255;SDS011;57229;51.432;-2.598;2024-03-08T02:01:58;79.03;;;33.40;;
56255;SDS011;57229;51.432;-2.598;2024-03-08T02:04:40;70.85;;;33.25;;
56255;SDS011;57229;51.432;-2.598;2024-03-08T02:07:06;76.20;;;33.80;;
56255;SDS011;57229;51.432;-2.598;2024-03-08T02:09:51;72.65;;;34.70;;
56255;SDS011;57229;51.432;-2.598;2024-03-08T02:12:17;75.72;;;33.33;;
56255;SDS011;57229;51.432;-2.598;2024-03-08T02:14:46;73.22;;;33.67;;
56255;SDS011;57229;51.432;-2.598;2024-03-08T02:17:15;73.93;;;33.38;;
56255;SDS011;57229;51.432;-2.598;2024-03-08T02:19:41;74.55;;;33.78;;
56255;SDS011;57229;51.432;-2.598;2024-03-08T02:22:06;72.07;;;34.60;;
56255;SDS011;57229;51.432;-2.598;2024-03-08T02:24:32;75.03;;;34.33;;
56255;SDS011;57229;51.432;-2.598;2024-03-08T02:26:58;73.97;;;35.85;;
56255;SDS011;57229;51.432;-2.598;2024-03-08T02:29:24;82.15;;;35.30;;
56255;SDS011;57229;51.432;-2.598;2024-03-08T02:31:53;71.15;;;34.42;;
56255;SDS011;57229;51.432;-2.598;2024-03-08T02:34:18;88.53;;;37.55;;
56255;SDS011;57229;51.432;-2.598;2024-03-08T02:36:45;81.43;;;36.42;;
56255;SDS011;57229;51.432;-2.598;2024-03-08T02:39:12;84.20;;;38.17;;
56255;SDS011;57229;51.432;-2.598;2024-03-08T02:41:39;79.70;;;36.28;;
56255;SDS011;57229;51.432;-2.598;2024-03-08T02:44:07;79.47;;;37.42;;
56255;SDS011;57229;51.432;-2.598;2024-03-08T02:46:34;81.00;;;37.28;;
56255;SDS011;57229;51.432;-2.598;2024-03-08T02:49:01;78.68;;;35.05;;
56255;SDS011;57229;51.432;-2.598;2024-03-08T02:51:31;82.25;;;36.78;;
56255;SDS011;57229;51.432;-2.598;2024-03-08T02:54:00;81.80;;;37.42;;
56255;SDS011;57229;51.432;-2.598;2024-03-08T02:56:25;83.65;;;39.08;;
56255;SDS011;57229;51.432;-2.598;2024-03-08T02:58:51;83.95;;;37.72;;
56255;SDS011;57229;51.432;-2.598;2024-03-08T03:01:17;82.22;;;38.17;;
56255;SDS011;57229;51.432;-2.598;2024-03-08T03:03:45;85.65;;;37.83;;
56255;SDS011;57229;51.432;-2.598;2024-03-08T03:06:14;81.45;;;38.13;;
56255;SDS011;57229;51.432;-2.598;2024-03-08T03:08:40;87.85;;;38.33;;
56255;SDS011;57229;51.432;-2.598;2024-03-08T03:11:09;93.88;;;38.15;;
56255;SDS011;57229;51.432;-2.598;2024-03-08T03:13:38;90.88;;;38.92;;
56255;SDS011;57229;51.432;-2.598;2024-03-08T03:16:05;90.57;;;39.75;;
56255;SDS011;57229;51.432;-2.598;2024-03-08T03:18:31;88.20;;;39.55;;
56255;SDS011;57229;51.432;-2.598;2024-03-08T03:20:58;91.05;;;38.50;;
56255;SDS011;57229;51.432;-2.598;2024-03-08T03:23:23;92.80;;;39.63;;
56255;SDS011;57229;51.432;-2.598;2024-03-08T03:25:51;95.88;;;40.45;;
56255;SDS011;57229;51.432;-2.598;2024-03-08T03:28:18;97.85;;;40.50;;
56255;SDS011;57229;51.432;-2.598;2024-03-08T03:30:46;94.20;;;40.47;;
56255;SDS011;57229;51.432;-2.598;2024-03-08T03:33:12;94.70;;;39.75;;
56255;SDS011;57229;51.432;-2.598;2024-03-08T03:35:40;88.75;;;39.85;;
56255;SDS011;57229;51.432;-2.598;2024-03-08T03:38:06;91.35;;;38.50;;
56255;SDS011;57229;51.432;-2.598;2024-03-08T03:40:38;97.57;;;40.92;;
56255;SDS011;57229;51.432;-2.598;2024-03-08T03:43:07;101.07;;;41.90;;
56255;SDS011;57229;51.432;-2.598;2024-03-08T03:45:35;94.68;;;39.60;;
56255;SDS011;57229;51.432;-2.598;2024-03-08T03:48:04;100.35;;;40.63;;
56255;SDS011;57229;51.432;-2.598;2024-03-08T03:50:36;95.57;;;42.00;;
56255;SDS011;57229;51.432;-2.598;2024-03-08T03:53:02;94.13;;;42.75;;
56255;SDS011;57229;51.432;-2.598;2024-03-08T03:55:28;96.35;;;41.65;;
56255;SDS011;57229;51.432;-2.598;2024-03-08T03:57:56;98.90;;;42.80;;
56255;SDS011;57229;51.432;-2.598;2024-03-08T04:00:29;103.47;;;42.42;;
56255;SDS011;57229;51.432;-2.598;2024-03-08T04:03:01;97.93;;;41.10;;
56255;SDS011;57229;51.432;-2.598;2024-03-08T04:05:27;98.63;;;41.88;;
56255;SDS011;57229;51.432;-2.598;2024-03-08T04:07:52;102.22;;;42.13;;
56255;SDS011;57229;51.432;-2.598;2024-03-08T04:10:18;102.00;;;42.50;;
56255;SDS011;57229;51.432;-2.598;2024-03-08T04:12:47;100.13;;;43.45;;
56255;SDS011;57229;51.432;-2.598;2024-03-08T04:15:13;102.03;;;45.03;;
56255;SDS011;57229;51.432;-2.598;2024-03-08T04:17:40;101.80;;;43.33;;
56255;SDS011;57229;51.432;-2.598;2024-03-08T04:20:19;106.47;;;43.30;;
56255;SDS011;57229;51.432;-2.598;2024-03-08T04:22:56;104.93;;;43.83;;
56255;SDS011;57229;51.432;-2.598;2024-03-08T04:25:22;99.43;;;43.25;;
56255;SDS011;57229;51.432;-2.598;2024-03-08T04:27:48;103.57;;;44.63;;
56255;SDS011;57229;51.432;-2.598;2024-03-08T04:30:17;99.15;;;43.72;;
56255;SDS011;57229;51.432;-2.598;2024-03-08T04:32:43;100.90;;;41.90;;
56255;SDS011;57229;51.432;-2.598;2024-03-08T04:35:12;97.13;;;43.78;;
56255;SDS011;57229;51.432;-2.598;2024-03-08T04:37:43;103.03;;;42.63;;
56255;SDS011;57229;51.432;-2.598;2024-03-08T04:40:13;103.25;;;44.88;;
56255;SDS011;57229;51.432;-2.598;2024-03-08T04:42:42;104.20;;;43.03;;
56255;SDS011;57229;51.432;-2.598;2024-03-08T04:45:11;102.30;;;44.72;;
56255;SDS011;57229;51.432;-2.598;2024-03-08T04:47:37;100.20;;;43.88;;
56255;SDS011;57229;51.432;-2.598;2024-03-08T04:50:02;103.63;;;43.42;;
56255;SDS011;57229;51.432;-2.598;2024-03-08T04:52:29;94.53;;;41.33;;
56255;SDS011;57229;51.432;-2.598;2024-03-08T04:54:55;101.55;;;44.53;;
56255;SDS011;57229;51.432;-2.598;2024-03-08T04:57:20;106.07;;;43.67;;
56255;SDS011;57229;51.432;-2.598;2024-03-08T04:59:46;98.43;;;42.50;;
56255;SDS011;57229;51.432;-2.598;2024-03-08T05:02:12;93.10;;;41.75;;
56255;SDS011;57229;51.432;-2.598;2024-03-08T05:04:37;100.72;;;43.15;;
56255;SDS011;57229;51.432;-2.598;2024-03-08T05:07:03;94.75;;;42.13;;
56255;SDS011;57229;51.432;-2.598;2024-03-08T05:09:29;92.13;;;41.90;;
56255;SDS011;57229;51.432;-2.598;2024-03-08T05:11:56;90.65;;;42.28;;
56255;SDS011;57229;51.432;-2.598;2024-03-08T05:14:24;95.82;;;41.00;;
56255;SDS011;57229;51.432;-2.598;2024-03-08T05:16:50;94.45;;;41.55;;
56255;SDS011;57229;51.432;-2.598;2024-03-08T05:19:19;89.13;;;40.72;;
56255;SDS011;57229;51.432;-2.598;2024-03-08T05:21:45;90.65;;;40.65;;
56255;SDS011;57229;51.432;-2.598;2024-03-08T05:24:12;93.30;;;41.30;;
56255;SDS011;57229;51.432;-2.598;2024-03-08T05:26:38;94.93;;;41.25;;
56255;SDS011;57229;51.432;-2.598;2024-03-08T05:29:04;98.53;;;41.67;;
56255;SDS011;57229;51.432;-2.598;2024-03-08T05:31:31;84.60;;;40.95;;
56255;SDS011;57229;51.432;-2.598;2024-03-08T05:34:12;88.72;;;39.72;;
56255;SDS011;57229;51.432;-2.598;2024-03-08T05:36:39;88.13;;;40.78;;
56255;SDS011;57229;51.432;-2.598;2024-03-08T05:39:05;86.78;;;40.45;;
56255;SDS011;57229;51.432;-2.598;2024-03-08T05:41:32;88.32;;;41.20;;
56255;SDS011;57229;51.432;-2.598;2024-03-08T05:43:57;89.65;;;40.38;;
56255;SDS011;57229;51.432;-2.598;2024-03-08T05:46:23;90.35;;;40.28;;
56255;SDS011;57229;51.432;-2.598;2024-03-08T05:48:48;95.13;;;41.13;;
56255;SDS011;57229;51.432;-2.598;2024-03-08T05:51:14;86.22;;;40.75;;
56255;SDS011;57229;51.432;-2.598;2024-03-08T05:53:40;92.00;;;39.47;;
56255;SDS011;57229;51.432;-2.598;2024-03-08T05:56:05;94.28;;;41.85;;
56255;SDS011;57229;51.432;-2.598;2024-03-08T05:58:31;91.55;;;39.97;;
56255;SDS011;57229;51.432;-2.598;2024-03-08T06:00:57;86.30;;;41.13;;
56255;SDS011;57229;51.432;-2.598;2024-03-08T06:03:22;93.72;;;40.53;;
56255;SDS011;57229;51.432;-2.598;2024-03-08T06:05:48;80.85;;;38.50;;
56255;SDS011;57229;51.432;-2.598;2024-03-08T06:08:14;92.07;;;40.15;;
56255;SDS011;57229;51.432;-2.598;2024-03-08T06:10:40;86.55;;;40.17;;
56255;SDS011;57229;51.432;-2.598;2024-03-08T06:13:06;90.25;;;41.10;;
56255;SDS011;57229;51.432;-2.598;2024-03-08T06:15:31;88.40;;;41.92;;
56255;SDS011;57229;51.432;-2.598;2024-03-08T06:17:57;88.72;;;40.38;;
56255;SDS011;57229;51.432;-2.598;2024-03-08T06:20:23;85.47;;;39.38;;
56255;SDS011;57229;51.432;-2.598;2024-03-08T06:22:51;82.70;;;40.45;;
56255;SDS011;57229;51.432;-2.598;2024-03-08T06:25:17;89.63;;;39.22;;
56255;SDS011;57229;51.432;-2.598;2024-03-08T06:27:43;90.97;;;39.45;;
56255;SDS011;57229;51.432;-2.598;2024-03-08T06:30:09;84.57;;;39.00;;
56255;SDS011;57229;51.432;-2.598;2024-03-08T06:32:38;83.30;;;37.33;;
56255;SDS011;57229;51.432;-2.598;2024-03-08T06:35:04;80.47;;;38.05;;
56255;SDS011;57229;51.432;-2.598;2024-03-08T06:37:35;94.85;;;38.88;;
56255;SDS011;57229;51.432;-2.598;2024-03-08T06:40:01;85.13;;;38.03;;
56255;SDS011;57229;51.432;-2.598;2024-03-08T06:42:28;83.95;;;37.97;;
56255;SDS011;57229;51.432;-2.598;2024-03-08T06:44:54;85.78;;;37.97;;
56255;SDS011;57229;51.432;-2.598;2024-03-08T06:47:24;83.65;;;38.30;;
56255;SDS011;57229;51.432;-2.598;2024-03-08T06:49:50;89.75;;;39.88;;
56255;SDS011;57229;51.432;-2.598;2024-03-08T06:52:20;84.60;;;38.38;;
56255;SDS011;57229;51.432;-2.598;2024-03-08T06:54:47;79.95;;;38.95;;
56255;SDS011;57229;51.432;-2.598;2024-03-08T06:57:12;94.55;;;39.05;;
56255;SDS011;57229;51.432;-2.598;2024-03-08T06:59:39;89.88;;;39.53;;
56255;SDS011;57229;51.432;-2.598;2024-03-08T07:02:04;88.75;;;38.92;;
56255;SDS011;57229;51.432;-2.598;2024-03-08T07:04:34;85.32;;;37.72;;
56255;SDS011;57229;51.432;-2.598;2024-03-08T07:07:03;80.13;;;37.85;;
56255;SDS011;57229;51.432;-2.598;2024-03-08T07:09:29;82.88;;;38.85;;
56255;SDS011;57229;51.432;-2.598;2024-03-08T07:11:54;87.78;;;37.80;;
56255;SDS011;57229;51.432;-2.598;2024-03-08T07:14:23;81.25;;;36.67;;
56255;SDS011;57229;51.432;-2.598;2024-03-08T07:16:49;86.07;;;37.92;;
56255;SDS011;57229;51.432;-2.598;2024-03-08T07:19:16;81.97;;;36.65;;
56255;SDS011;57229;51.432;-2.598;2024-03-08T07:21:42;83.90;;;37.75;;
56255;SDS011;57229;51.432;-2.598;2024-03-08T07:24:09;85.07;;;37.95;;
56255;SDS011;57229;51.432;-2.598;2024-03-08T07:26:35;82.22;;;37.47;;
56255;SDS011;57229;51.432;-2.598;2024-03-08T07:29:00;77.95;;;36.47;;
56255;SDS011;57229;51.432;-2.598;2024-03-08T07:31:26;83.53;;;36.35;;
56255;SDS011;57229;51.432;-2.598;2024-03-08T07:34:03;79.53;;;35.58;;
56255;SDS011;57229;51.432;-2.598;2024-03-08T07:36:33;82.15;;;37.85;;
56255;SDS011;57229;51.432;-2.598;2024-03-08T07:39:02;77.05;;;37.00;;
56255;SDS011;57229;51.432;-2.598;2024-03-08T07:41:30;75.90;;;35.00;;
56255;SDS011;57229;51.432;-2.598;2024-03-08T07:43:56;84.43;;;38.45;;
56255;SDS011;57229;51.432;-2.598;2024-03-08T07:46:21;78.20;;;36.40;;
56255;SDS011;57229;51.432;-2.598;2024-03-08T07:48:48;76.43;;;36.42;;
56255;SDS011;57229;51.432;-2.598;2024-03-08T07:51:15;82.15;;;37.90;;
56255;SDS011;57229;51.432;-2.598;2024-03-08T07:53:42;81.78;;;35.90;;
56255;SDS011;57229;51.432;-2.598;2024-03-08T07:56:08;74.10;;;35.17;;
56255;SDS011;57229;51.432;-2.598;2024-03-08T07:58:38;72.00;;;33.83;;
56255;SDS011;57229;51.432;-2.598;2024-03-08T08:01:05;76.25;;;35.42;;
56255;SDS011;57229;51.432;-2.598;2024-03-08T08:03:31;76.55;;;35.42;;
56255;SDS011;57229;51.432;-2.598;2024-03-08T08:05:57;63.38;;;33.08;;
56255;SDS011;57229;51.432;-2.598;2024-03-08T08:08:22;65.85;;;33.47;;
56255;SDS011;57229;51.432;-2.598;2024-03-08T08:10:49;69.50;;;33.90;;
56255;SDS011;57229;51.432;-2.598;2024-03-08T08:13:14;63.55;;;33.05;;
56255;SDS011;57229;51.432;-2.598;2024-03-08T08:15:40;65.70;;;32.65;;
56255;SDS011;57229;51.432;-2.598;2024-03-08T08:18:06;67.32;;;34.30;;
56255;SDS011;57229;51.432;-2.598;2024-03-08T08:20:34;65.43;;;33.53;;
56255;SDS011;57229;51.432;-2.598;2024-03-08T08:23:00;66.68;;;34.20;;
56255;SDS011;57229;51.432;-2.598;2024-03-08T08:25:26;63.78;;;33.72;;
56255;SDS011;57229;51.432;-2.598;2024-03-08T08:27:51;68.82;;;34.28;;
56255;SDS011;57229;51.432;-2.598;2024-03-08T08:30:18;67.00;;;33.97;;
56255;SDS011;57229;51.432;-2.598;2024-03-08T08:32:44;67.55;;;33.13;;
56255;SDS011;57229;51.432;-2.598;2024-03-08T08:35:11;65.25;;;33.33;;
56255;SDS011;57229;51.432;-2.598;2024-03-08T08:37:41;65.43;;;32.65;;
56255;SDS011;57229;51.432;-2.598;2024-03-08T08:40:07;70.30;;;34.83;;
56255;SDS011;57229;51.432;-2.598;2024-03-08T08:42:39;69.72;;;34.53;;
56255;SDS011;57229;51.432;-2.598;2024-03-08T08:45:06;69.60;;;33.92;;
56255;SDS011;57229;51.432;-2.598;2024-03-08T08:47:35;59.40;;;31.27;;
56255;SDS011;57229;51.432;-2.598;2024-03-08T08:50:01;66.88;;;32.97;;
56255;SDS011;57229;51.432;-2.598;2024-03-08T08:52:29;62.88;;;31.77;;
56255;SDS011;57229;51.432;-2.598;2024-03-08T08:54:55;66.82;;;32.63;;
56255;SDS011;57229;51.432;-2.598;2024-03-08T08:57:21;68.30;;;33.05;;
56255;SDS011;57229;51.432;-2.598;2024-03-08T08:59:47;56.00;;;31.52;;
56255;SDS011;57229;51.432;-2.598;2024-03-08T09:02:13;68.65;;;33.75;;
56255;SDS011;57229;51.432;-2.598;2024-03-08T09:04:41;60.53;;;31.92;;
56255;SDS011;57229;51.432;-2.598;2024-03-08T09:07:08;63.25;;;31.17;;
56255;SDS011;57229;51.432;-2.598;2024-03-08T09:09:33;61.45;;;32.03;;
56255;SDS011;57229;51.432;-2.598;2024-03-08T09:11:59;60.67;;;31.73;;
56255;SDS011;57229;51.432;-2.598;2024-03-08T09:14:26;60.50;;;31.55;;
56255;SDS011;57229;51.432;-2.598;2024-03-08T09:16:51;57.45;;;30.30;;
56255;SDS011;57229;51.432;-2.598;2024-03-08T09:19:17;60.83;;;31.50;;
56255;SDS011;57229;51.432;-2.598;2024-03-08T09:21:44;57.40;;;30.65;;
56255;SDS011;57229;51.432;-2.598;2024-03-08T09:24:10;64.22;;;31.55;;
56255;SDS011;57229;51.432;-2.598;2024-03-08T09:26:35;55.58;;;30.70;;
56255;SDS011;57229;51.432;-2.598;2024-03-08T09:29:02;57.42;;;31.23;;
56255;SDS011;57229;51.432;-2.598;2024-03-08T09:31:27;58.58;;;30.58;;
56255;SDS011;57229;51.432;-2.598;2024-03-08T09:33:53;54.42;;;29.77;;
56255;SDS011;57229;51.432;-2.598;2024-03-08T09:36:19;58.22;;;30.05;;
56255;SDS011;57229;51.432;-2.598;2024-03-08T09:38:45;58.47;;;30.92;;
56255;SDS011;57229;51.432;-2.598;2024-03-08T09:41:10;55.78;;;29.15;;
56255;SDS011;57229;51.432;-2.598;2024-03-08T09:43:37;65.63;;;29.40;;
56255;SDS011;57229;51.432;-2.598;2024-03-08T09:46:03;47.70;;;28.05;;
56255;SDS011;57229;51.432;-2.598;2024-03-08T09:48:31;57.08;;;28.83;;
56255;SDS011;57229;51.432;-2.598;2024-03-08T09:50:57;50.78;;;27.95;;
56255;SDS011;57229;51.432;-2.598;2024-03-08T09:53:23;50.53;;;28.25;;
56255;SDS011;57229;51.432;-2.598;2024-03-08T09:55:49;50.78;;;27.48;;
56255;SDS011;57229;51.432;-2.598;2024-03-08T09:58:15;51.28;;;27.10;;
56255;SDS011;57229;51.432;-2.598;2024-03-08T10:00:53;50.10;;;28.05;;
56255;SDS011;57229;51.432;-2.598;2024-03-08T10:03:19;49.55;;;27.48;;
56255;SDS011;57229;51.432;-2.598;2024-03-08T10:05:45;47.22;;;27.02;;
56255;SDS011;57229;51.432;-2.598;2024-03-08T10:08:11;49.28;;;26.08;;
56255;SDS011;57229;51.432;-2.598;2024-03-08T10:10:38;47.70;;;27.38;;
56255;SDS011;57229;51.432;-2.598;2024-03-08T10:13:07;50.00;;;27.80;;
56255;SDS011;57229;51.432;-2.598;2024-03-08T10:15:36;45.30;;;26.17;;
56255;SDS011;57229;51.432;-2.598;2024-03-08T10:18:03;47.65;;;26.45;;
56255;SDS011;57229;51.432;-2.598;2024-03-08T10:20:32;47.95;;;27.13;;
56255;SDS011;57229;51.432;-2.598;2024-03-08T10:23:01;47.35;;;27.63;;
56255;SDS011;57229;51.432;-2.598;2024-03-08T10:25:33;48.20;;;26.67;;
56255;SDS011;57229;51.432;-2.598;2024-03-08T10:27:59;43.30;;;26.48;;
56255;SDS011;57229;51.432;-2.598;2024-03-08T10:30:29;42.13;;;24.95;;
56255;SDS011;57229;51.432;-2.598;2024-03-08T10:32:54;46.92;;;26.42;;
56255;SDS011;57229;51.432;-2.598;2024-03-08T10:35:20;47.47;;;26.25;;
56255;SDS011;57229;51.432;-2.598;2024-03-08T10:37:46;46.80;;;25.92;;
56255;SDS011;57229;51.432;-2.598;2024-03-08T10:40:18;40.55;;;25.33;;
56255;SDS011;57229;51.432;-2.598;2024-03-08T10:42:51;46.17;;;26.92;;
56255;SDS011;57229;51.432;-2.598;2024-03-08T10:48:04;41.15;;;26.38;;
56255;SDS011;57229;51.432;-2.598;2024-03-08T10:50:37;44.72;;;25.80;;
56255;SDS011;57229;51.432;-2.598;2024-03-08T10:53:04;42.38;;;25.35;;
56255;SDS011;57229;51.432;-2.598;2024-03-08T10:55:31;39.15;;;24.67;;
56255;SDS011;57229;51.432;-2.598;2024-03-08T10:57:59;38.38;;;24.13;;
56255;SDS011;57229;51.432;-2.598;2024-03-08T11:00:25;40.53;;;25.90;;
56255;SDS011;57229;51.432;-2.598;2024-03-08T11:02:52;39.78;;;25.88;;
56255;SDS011;57229;51.432;-2.598;2024-03-08T11:05:48;42.08;;;24.75;;
56255;SDS011;57229;51.432;-2.598;2024-03-08T11:09:00;37.75;;;23.90;;
56255;SDS011;57229;51.432;-2.598;2024-03-08T11:12:20;38.83;;;24.08;;
56255;SDS011;57229;51.432;-2.598;2024-03-08T11:15:12;44.10;;;24.30;;
56255;SDS011;57229;51.432;-2.598;2024-03-08T11:17:48;39.40;;;23.45;;
56255;SDS011;57229;51.432;-2.598;2024-03-08T11:20:36;45.63;;;23.85;;
56255;SDS011;57229;51.432;-2.598;2024-03-08T11:23:04;39.22;;;23.45;;
56255;SDS011;57229;51.432;-2.598;2024-03-08T11:25:32;40.08;;;23.58;;
56255;SDS011;57229;51.432;-2.598;2024-03-08T11:28:18;39.78;;;22.85;;
56255;SDS011;57229;51.432;-2.598;2024-03-08T11:33:30;45.38;;;24.42;;
56255;SDS011;57229;51.432;-2.598;2024-03-08T11:38:52;43.85;;;23.48;;
56255;SDS011;57229;51.432;-2.598;2024-03-08T11:41:22;37.38;;;22.52;;
56255;SDS011;57229;51.432;-2.598;2024-03-08T11:44:03;36.25;;;22.25;;
56255;SDS011;57229;51.432;-2.598;2024-03-08T11:46:45;40.22;;;23.55;;
56255;SDS011;57229;51.432;-2.598;2024-03-08T11:51:57;35.90;;;22.05;;
56255;SDS011;57229;51.432;-2.598;2024-03-08T11:54:24;40.75;;;24.20;;
56255;SDS011;57229;51.432;-2.598;2024-03-08T11:57:23;39.97;;;22.83;;
56255;SDS011;57229;51.432;-2.598;2024-03-08T11:59:52;41.08;;;22.48;;
56255;SDS011;57229;51.432;-2.598;2024-03-08T12:02:31;36.97;;;21.98;;
56255;SDS011;57229;51.432;-2.598;2024-03-08T12:04:57;36.75;;;23.17;;
56255;SDS011;57229;51.432;-2.598;2024-03-08T12:07:31;36.22;;;21.70;;
56255;SDS011;57229;51.432;-2.598;2024-03-08T12:10:15;37.58;;;22.67;;
56255;SDS011;57229;51.432;-2.598;2024-03-08T12:12:55;38.55;;;21.33;;
56255;SDS011;57229;51.432;-2.598;2024-03-08T12:15:24;35.30;;;22.25;;
56255;SDS011;57229;51.432;-2.598;2024-03-08T12:17:51;35.50;;;21.05;;
56255;SDS011;57229;51.432;-2.598;2024-03-08T12:20:24;33.90;;;21.02;;
56255;SDS011;57229;51.432;-2.598;2024-03-08T12:22:51;36.45;;;22.15;;
56255;SDS011;57229;51.432;-2.598;2024-03-08T12:25:29;38.17;;;23.05;;
56255;SDS011;57229;51.432;-2.598;2024-03-08T12:28:09;40.08;;;22.35;;
56255;SDS011;57229;51.432;-2.598;2024-03-08T12:31:01;40.05;;;23.52;;
56255;SDS011;57229;51.432;-2.598;2024-03-08T12:33:27;35.47;;;22.50;;
56255;SDS011;57229;51.432;-2.598;2024-03-08T12:36:24;37.33;;;22.17;;
56255;SDS011;57229;51.432;-2.598;2024-03-08T12:42:28;32.60;;;22.17;;
56255;SDS011;57229;51.432;-2.598;2024-03-08T12:44:57;34.38;;;22.42;;
56255;SDS011;57229;51.432;-2.598;2024-03-08T12:47:26;32.45;;;22.63;;
56255;SDS011;57229;51.432;-2.598;2024-03-08T12:49:54;32.38;;;21.10;;
56255;SDS011;57229;51.432;-2.598;2024-03-08T12:52:19;30.42;;;21.25;;
56255;SDS011;57229;51.432;-2.598;2024-03-08T12:54:45;31.60;;;20.65;;
56255;SDS011;57229;51.432;-2.598;2024-03-08T12:57:12;30.17;;;21.13;;
56255;SDS011;57229;51.432;-2.598;2024-03-08T12:59:38;28.42;;;20.70;;
56255;SDS011;57229;51.432;-2.598;2024-03-08T13:02:05;29.42;;;21.23;;
56255;SDS011;57229;51.432;-2.598;2024-03-08T13:04:36;28.98;;;21.25;;
56255;SDS011;57229;51.432;-2.598;2024-03-08T13:07:01;32.38;;;20.77;;
56255;SDS011;57229;51.432;-2.598;2024-03-08T13:09:28;37.35;;;21.98;;
56255;SDS011;57229;51.432;-2.598;2024-03-08T13:11:54;34.83;;;21.52;;
56255;SDS011;57229;51.432;-2.598;2024-03-08T13:14:20;29.92;;;20.45;;
56255;SDS011;57229;51.432;-2.598;2024-03-08T13:16:46;29.30;;;19.90;;
56255;SDS011;57229;51.432;-2.598;2024-03-08T13:19:13;30.83;;;20.15;;
56255;SDS011;57229;51.432;-2.598;2024-03-08T13:21:38;28.08;;;19.75;;
56255;SDS011;57229;51.432;-2.598;2024-03-08T13:24:04;28.00;;;19.85;;
56255;SDS011;57229;51.432;-2.598;2024-03-08T13:26:30;28.88;;;20.40;;
56255;SDS011;57229;51.432;-2.598;2024-03-08T13:28:58;29.30;;;20.55;;
56255;SDS011;57229;51.432;-2.598;2024-03-08T13:31:24;27.10;;;18.85;;
56255;SDS011;57229;51.432;-2.598;2024-03-08T13:34:05;29.27;;;19.20;;
56255;SDS011;57229;51.432;-2.598;2024-03-08T13:36:33;27.10;;;19.33;;
56255;SDS011;57229;51.432;-2.598;2024-03-08T13:39:04;26.60;;;19.40;;
56255;SDS011;57229;51.432;-2.598;2024-03-08T13:41:40;31.63;;;20.10;;
56255;SDS011;57229;51.432;-2.598;2024-03-08T13:44:06;29.95;;;19.48;;
56255;SDS011;57229;51.432;-2.598;2024-03-08T13:46:32;33.65;;;19.92;;
56255;SDS011;57229;51.432;-2.598;2024-03-08T13:49:04;30.23;;;20.00;;
56255;SDS011;57229;51.432;-2.598;2024-03-08T13:51:50;30.75;;;20.17;;
56255;SDS011;57229;51.432;-2.598;2024-03-08T13:55:05;32.58;;;19.27;;
56255;SDS011;57229;51.432;-2.598;2024-03-08T13:57:21;25.90;;;18.52;;
56255;SDS011;57229;51.432;-2.598;2024-03-08T13:59:56;26.20;;;18.75;;
56255;SDS011;57229;51.432;-2.598;2024-03-08T14:02:25;28.02;;;19.10;;
56255;SDS011;57229;51.432;-2.598;2024-03-08T14:04:59;28.60;;;18.30;;
56255;SDS011;57229;51.432;-2.598;2024-03-08T14:07:26;30.65;;;20.00;;
56255;SDS011;57229;51.432;-2.598;2024-03-08T14:09:53;28.05;;;17.98;;
56255;SDS011;57229;51.432;-2.598;2024-03-08T14:12:20;27.20;;;18.55;;
56255;SDS011;57229;51.432;-2.598;2024-03-08T14:14:45;28.83;;;18.92;;
56255;SDS011;57229;51.432;-2.598;2024-03-08T14:17:11;28.30;;;18.45;;
56255;SDS011;57229;51.432;-2.598;2024-03-08T14:19:42;26.48;;;18.95;;
56255;SDS011;57229;51.432;-2.598;2024-03-08T14:22:07;27.10;;;19.38;;
56255;SDS011;57229;51.432;-2.598;2024-03-08T14:24:35;28.98;;;17.60;;
56255;SDS011;57229;51.432;-2.598;2024-03-08T14:27:01;25.75;;;17.70;;
56255;SDS011;57229;51.432;-2.598;2024-03-08T14:29:28;27.48;;;18.98;;
56255;SDS011;57229;51.432;-2.598;2024-03-08T14:31:57;27.50;;;19.17;;
56255;SDS011;57229;51.432;-2.598;2024-03-08T14:34:33;30.13;;;19.73;;